Aviation Digital Data Service (ADDS)

Output produced by TAFs form (1704 UTC 04 May 2015)
found at http://aviationweather.gov/adds/tafs/
 
KTCS 041140Z 0412/0512 30006KT P6SM SCT110 
     FM042000 20018G28KT P6SM VCTS SCT080CB 
     FM050400 29010KT P6SM FEW120 BKN250